sensor_id;sensor_type;location;lat;lon;timestamp;temperature;humidity
27870;DHT22;15225;50.730;4.244;2023-11-19T16:41:07;11.60;82.80
27870;DHT22;15225;50.730;4.244;2023-11-19T16:43:32;11.50;84.20
27870;DHT22;15225;50.730;4.244;2023-11-19T16:45:58;11.90;77.20
27870;DHT22;15225;50.730;4.244;2023-11-19T16:48:24;12.20;57.40
27870;DHT22;15225;50.730;4.244;2023-11-19T16:50:50;12.60;42.70
27870;DHT22;15225;50.730;4.244;2023-11-19T16:53:16;13.00;17.50
27870;DHT22;15225;50.730;4.244;2023-11-19T16:55:42;13.30;1.00
27870;DHT22;15225;50.730;4.244;2023-11-19T16:58:08;13.50;1.00
27870;DHT22;15225;50.730;4.244;2023-11-19T17:00:35;13.60;1.00
27870;DHT22;15225;50.730;4.244;2023-11-19T17:03:04;13.50;1.00
27870;DHT22;15225;50.730;4.244;2023-11-19T17:05:31;13.50;1.00
27870;DHT22;15225;50.730;4.244;2023-11-19T17:07:59;13.50;1.00
27870;DHT22;15225;50.730;4.244;2023-11-19T17:10:25;13.50;1.00
27870;DHT22;15225;50.730;4.244;2023-11-19T17:12:51;13.50;1.00
27870;DHT22;15225;50.730;4.244;2023-11-19T17:15:17;13.60;1.00
27870;DHT22;15225;50.730;4.244;2023-11-19T17:17:43;13.70;1.00
27870;DHT22;15225;50.730;4.244;2023-11-19T17:20:10;13.70;1.00
27870;DHT22;15225;50.730;4.244;2023-11-19T17:22:38;13.80;1.00
27870;DHT22;15225;50.730;4.244;2023-11-19T17:25:05;13.60;1.00
27870;DHT22;15225;50.730;4.244;2023-11-19T17:27:37;13.70;1.00
27870;DHT22;15225;50.730;4.244;2023-11-19T17:30:06;13.70;1.00
27870;DHT22;15225;50.730;4.244;2023-11-19T17:32:32;13.70;1.00
27870;DHT22;15225;50.730;4.244;2023-11-19T17:34:58;13.70;1.00
27870;DHT22;15225;50.730;4.244;2023-11-19T17:37:24;13.60;1.00
27870;DHT22;15225;50.730;4.244;2023-11-19T17:39:50;13.50;1.00
27870;DHT22;15225;50.730;4.244;2023-11-19T17:42:17;13.60;1.00
27870;DHT22;15225;50.730;4.244;2023-11-19T17:44:43;13.50;1.00
27870;DHT22;15225;50.730;4.244;2023-11-19T17:47:09;13.40;1.00
27870;DHT22;15225;50.730;4.244;2023-11-19T17:49:34;13.30;1.00
27870;DHT22;15225;50.730;4.244;2023-11-19T17:52:00;13.30;1.00
27870;DHT22;15225;50.730;4.244;2023-11-19T17:54:26;13.30;1.00
27870;DHT22;15225;50.730;4.244;2023-11-19T17:56:52;13.40;1.00
27870;DHT22;15225;50.730;4.244;2023-11-19T17:59:17;13.40;1.00
27870;DHT22;15225;50.730;4.244;2023-11-19T18:01:43;13.40;1.00
27870;DHT22;15225;50.730;4.244;2023-11-19T18:04:09;13.60;1.00
27870;DHT22;15225;50.730;4.244;2023-11-19T18:06:35;13.60;1.00
27870;DHT22;15225;50.730;4.244;2023-11-19T18:09:03;13.50;1.00
27870;DHT22;15225;50.730;4.244;2023-11-19T18:11:29;13.50;1.00
27870;DHT22;15225;50.730;4.244;2023-11-19T18:14:02;13.50;1.00
27870;DHT22;15225;50.730;4.244;2023-11-19T18:16:27;13.40;1.00
27870;DHT22;15225;50.730;4.244;2023-11-19T18:18:53;13.50;1.00
27870;DHT22;15225;50.730;4.244;2023-11-19T18:21:19;13.50;1.00
27870;DHT22;15225;50.730;4.244;2023-11-19T18:23:45;13.60;1.00
27870;DHT22;15225;50.730;4.244;2023-11-19T18:26:11;13.60;1.00
27870;DHT22;15225;50.730;4.244;2023-11-19T18:28:37;13.70;1.00
27870;DHT22;15225;50.730;4.244;2023-11-19T18:31:03;13.90;1.00
27870;DHT22;15225;50.730;4.244;2023-11-19T18:33:29;13.80;1.00
27870;DHT22;15225;50.730;4.244;2023-11-19T18:35:55;13.80;1.00
27870;DHT22;15225;50.730;4.244;2023-11-19T18:38:20;13.70;1.00
27870;DHT22;15225;50.730;4.244;2023-11-19T18:40:46;13.70;1.00
27870;DHT22;15225;50.730;4.244;2023-11-19T18:43:12;13.70;1.00
27870;DHT22;15225;50.730;4.244;2023-11-19T18:45:39;13.60;1.00
27870;DHT22;15225;50.730;4.244;2023-11-19T18:48:04;13.70;1.00
27870;DHT22;15225;50.730;4.244;2023-11-19T18:50:31;13.70;1.00
27870;DHT22;15225;50.730;4.244;2023-11-19T18:52:57;13.60;1.00
27870;DHT22;15225;50.730;4.244;2023-11-19T18:55:22;13.60;1.00
27870;DHT22;15225;50.730;4.244;2023-11-19T18:57:49;13.60;1.00
27870;DHT22;15225;50.730;4.244;2023-11-19T19:00:15;13.50;1.00
27870;DHT22;15225;50.730;4.244;2023-11-19T19:02:42;13.50;1.00
27870;DHT22;15225;50.730;4.244;2023-11-19T19:05:07;13.60;1.00
27870;DHT22;15225;50.730;4.244;2023-11-19T19:07:33;13.40;1.00
27870;DHT22;15225;50.730;4.244;2023-11-19T19:09:59;13.40;1.00
27870;DHT22;15225;50.730;4.244;2023-11-19T19:12:26;13.40;1.00
27870;DHT22;15225;50.730;4.244;2023-11-19T19:14:51;13.30;1.00
27870;DHT22;15225;50.730;4.244;2023-11-19T19:17:20;13.30;1.00
27870;DHT22;15225;50.730;4.244;2023-11-19T19:19:45;13.30;1.00
27870;DHT22;15225;50.730;4.244;2023-11-19T19:22:11;13.30;1.00
27870;DHT22;15225;50.730;4.244;2023-11-19T19:24:37;13.50;1.00
27870;DHT22;15225;50.730;4.244;2023-11-19T19:27:03;13.50;1.00
27870;DHT22;15225;50.730;4.244;2023-11-19T19:29:29;13.40;1.00
27870;DHT22;15225;50.730;4.244;2023-11-19T19:31:55;13.40;1.00
27870;DHT22;15225;50.730;4.244;2023-11-19T19:34:21;13.50;1.00
27870;DHT22;15225;50.730;4.244;2023-11-19T19:36:47;13.40;1.00
27870;DHT22;15225;50.730;4.244;2023-11-19T19:39:13;13.40;1.00
27870;DHT22;15225;50.730;4.244;2023-11-19T19:41:41;13.30;1.00
27870;DHT22;15225;50.730;4.244;2023-11-19T19:44:07;13.40;1.00
27870;DHT22;15225;50.730;4.244;2023-11-19T19:46:41;13.40;1.00
27870;DHT22;15225;50.730;4.244;2023-11-19T19:49:07;13.30;1.00
27870;DHT22;15225;50.730;4.244;2023-11-19T19:51:33;13.30;1.00
27870;DHT22;15225;50.730;4.244;2023-11-19T19:53:59;13.30;1.00
27870;DHT22;15225;50.730;4.244;2023-11-19T19:56:25;13.20;1.00
27870;DHT22;15225;50.730;4.244;2023-11-19T19:58:50;13.20;1.00
27870;DHT22;15225;50.730;4.244;2023-11-19T20:01:19;13.10;1.00
27870;DHT22;15225;50.730;4.244;2023-11-19T20:03:45;13.20;1.00
27870;DHT22;15225;50.730;4.244;2023-11-19T20:06:13;13.10;1.00
27870;DHT22;15225;50.730;4.244;2023-11-19T20:08:39;13.00;1.00
27870;DHT22;15225;50.730;4.244;2023-11-19T20:11:06;13.10;1.00
27870;DHT22;15225;50.730;4.244;2023-11-19T20:13:35;13.20;1.00
27870;DHT22;15225;50.730;4.244;2023-11-19T20:16:01;13.30;1.00
27870;DHT22;15225;50.730;4.244;2023-11-19T20:18:34;13.10;1.00
27870;DHT22;15225;50.730;4.244;2023-11-19T20:21:01;13.30;1.00
27870;DHT22;15225;50.730;4.244;2023-11-19T20:23:32;13.30;1.00
27870;DHT22;15225;50.730;4.244;2023-11-19T20:25:58;13.30;1.00
27870;DHT22;15225;50.730;4.244;2023-11-19T20:28:23;13.30;1.00
27870;DHT22;15225;50.730;4.244;2023-11-19T20:30:49;13.40;1.00
27870;DHT22;15225;50.730;4.244;2023-11-19T20:33:19;13.20;1.00
27870;DHT22;15225;50.730;4.244;2023-11-19T20:35:45;13.30;1.00
27870;DHT22;15225;50.730;4.244;2023-11-19T20:38:10;13.30;1.00
27870;DHT22;15225;50.730;4.244;2023-11-19T20:40:38;13.10;1.00
27870;DHT22;15225;50.730;4.244;2023-11-19T20:43:04;13.20;1.00
27870;DHT22;15225;50.730;4.244;2023-11-19T20:45:29;13.30;1.00
27870;DHT22;15225;50.730;4.244;2023-11-19T20:47:56;13.50;1.00
27870;DHT22;15225;50.730;4.244;2023-11-19T20:50:23;13.30;1.00
27870;DHT22;15225;50.730;4.244;2023-11-19T20:52:52;13.10;1.00
27870;DHT22;15225;50.730;4.244;2023-11-19T20:55:19;13.10;3.30
27870;DHT22;15225;50.730;4.244;2023-11-19T20:57:46;12.90;16.10
27870;DHT22;15225;50.730;4.244;2023-11-19T21:00:14;12.90;16.20
27870;DHT22;15225;50.730;4.244;2023-11-19T21:02:44;12.80;17.00
27870;DHT22;15225;50.730;4.244;2023-11-19T21:05:10;12.80;17.80
27870;DHT22;15225;50.730;4.244;2023-11-19T21:07:36;12.80;18.20
27870;DHT22;15225;50.730;4.244;2023-11-19T21:10:01;12.80;18.00
27870;DHT22;15225;50.730;4.244;2023-11-19T21:12:28;13.00;5.60
27870;DHT22;15225;50.730;4.244;2023-11-19T21:14:54;13.00;1.00
27870;DHT22;15225;50.730;4.244;2023-11-19T21:17:21;13.10;1.00
27870;DHT22;15225;50.730;4.244;2023-11-19T21:19:46;13.10;1.00
27870;DHT22;15225;50.730;4.244;2023-11-19T21:22:13;13.20;1.00
27870;DHT22;15225;50.730;4.244;2023-11-19T21:24:39;13.20;1.00
27870;DHT22;15225;50.730;4.244;2023-11-19T21:27:06;13.30;1.00
27870;DHT22;15225;50.730;4.244;2023-11-19T21:29:33;13.30;1.00
27870;DHT22;15225;50.730;4.244;2023-11-19T21:31:59;13.40;1.00
27870;DHT22;15225;50.730;4.244;2023-11-19T21:34:24;13.40;1.00
27870;DHT22;15225;50.730;4.244;2023-11-19T21:36:51;13.40;1.00
27870;DHT22;15225;50.730;4.244;2023-11-19T21:39:17;13.40;1.00
27870;DHT22;15225;50.730;4.244;2023-11-19T21:41:45;13.30;1.00
27870;DHT22;15225;50.730;4.244;2023-11-19T21:44:14;13.30;1.00
27870;DHT22;15225;50.730;4.244;2023-11-19T21:46:40;13.40;1.00
27870;DHT22;15225;50.730;4.244;2023-11-19T21:49:05;13.40;1.00
27870;DHT22;15225;50.730;4.244;2023-11-19T21:51:31;13.40;1.00
27870;DHT22;15225;50.730;4.244;2023-11-19T21:53:57;13.50;1.00
27870;DHT22;15225;50.730;4.244;2023-11-19T21:56:22;13.50;1.00
